Time;durP1;ratioP1;P1;durP2;ratioP2;P2;SDS_P1;SDS_P2;PMS_P1;PMS_P2;Temp;Humidity;BMP_temperature;BMP_pressure;BME280_temperature;BME280_humidity;BME280_pressure;Samples;Min_cycle;Max_cycle;Signal;HPM_P1;HPM_P2
2022/10/16 00:01:28;;;;;;;22.95;15.40;;;;;;;;;;4958524;28;20600;-45
2022/10/16 00:03:56;;;;;;;25.30;18.65;;;;;;;;;;4959049;28;20730;-45
2022/10/16 00:06:24;;;;;;;25.05;16.83;;;;;;;;;;4958464;28;20274;-46
2022/10/16 00:08:52;;;;;;;37.28;24.80;;;;;;;;;;4958489;28;20203;-46
2022/10/16 00:11:22;;;;;;;36.28;22.77;;;;;;;;;;4958517;28;20207;-46
2022/10/16 00:13:51;;;;;;;32.63;23.20;;;;;;;;;;4958577;28;20219;-46
2022/10/16 00:16:19;;;;;;;33.33;21.55;;;;;;;;;;4958425;28;20215;-46
2022/10/16 00:18:46;;;;;;;29.77;22.92;;;;;;;;;;4958110;28;20266;-46
2022/10/16 00:21:17;;;;;;;27.63;20.58;;;;;;;;;;4957973;28;20211;-45
2022/10/16 00:23:44;;;;;;;23.45;17.95;;;;;;;;;;4958482;28;20555;-46
2022/10/16 00:26:14;;;;;;;28.70;18.60;;;;;;;;;;4958258;28;20203;-45
2022/10/16 00:28:41;;;;;;;26.40;17.15;;;;;;;;;;4958050;28;20266;-45
2022/10/16 00:31:11;;;;;;;30.63;20.90;;;;;;;;;;4957991;28;20200;-47
2022/10/16 00:33:39;;;;;;;26.23;17.27;;;;;;;;;;4958248;28;20204;-45
2022/10/16 00:36:09;;;;;;;28.13;17.02;;;;;;;;;;4957757;28;20207;-46
2022/10/16 00:38:37;;;;;;;26.58;17.42;;;;;;;;;;4957024;29;20594;-46
2022/10/16 00:41:06;;;;;;;27.15;17.83;;;;;;;;;;4958020;28;20219;-46
2022/10/16 00:43:34;;;;;;;25.92;18.02;;;;;;;;;;4957996;28;20207;-46
2022/10/16 00:46:03;;;;;;;30.83;21.48;;;;;;;;;;4957739;28;20207;-45
2022/10/16 00:48:30;;;;;;;37.17;28.05;;;;;;;;;;4957472;28;20534;-45
2022/10/16 00:50:58;;;;;;;34.88;24.02;;;;;;;;;;4956759;29;20207;-46
2022/10/16 00:53:25;;;;;;;32.67;24.25;;;;;;;;;;4956559;29;20689;-46
2022/10/16 00:55:53;;;;;;;38.30;29.40;;;;;;;;;;4957425;28;20199;-46
2022/10/16 00:58:20;;;;;;;28.73;19.88;;;;;;;;;;4956588;29;20223;-45
2022/10/16 01:00:47;;;;;;;31.73;22.27;;;;;;;;;;4957785;28;20530;-46
2022/10/16 01:03:41;;;;;;;27.00;19.48;;;;;;;;;;4957254;28;20286;-46
2022/10/16 01:06:14;;;;;;;27.88;20.02;;;;;;;;;;4956489;28;20218;-46
2022/10/16 01:08:47;;;;;;;27.23;17.20;;;;;;;;;;4957444;28;20274;-45
2022/10/16 01:11:25;;;;;;;29.85;20.25;;;;;;;;;;4958099;28;20208;-45
2022/10/16 01:13:58;;;;;;;28.25;17.17;;;;;;;;;;4956591;29;20215;-46
2022/10/16 01:16:34;;;;;;;27.15;17.08;;;;;;;;;;4956624;29;20278;-45
2022/10/16 01:19:08;;;;;;;32.33;26.13;;;;;;;;;;4957369;28;20253;-46
2022/10/16 01:21:40;;;;;;;36.55;29.90;;;;;;;;;;4956650;29;20273;-45
2022/10/16 01:24:28;;;;;;;44.17;37.15;;;;;;;;;;4956354;29;20218;-45
2022/10/16 01:27:02;;;;;;;49.70;37.70;;;;;;;;;;4956234;29;20215;-45
2022/10/16 01:29:35;;;;;;;51.30;42.72;;;;;;;;;;4956901;28;20751;-46
2022/10/16 01:32:10;;;;;;;33.13;24.13;;;;;;;;;;4955607;28;20215;-46
2022/10/16 01:34:59;;;;;;;28.17;20.35;;;;;;;;;;4956274;29;20630;-46
2022/10/16 01:37:40;;;;;;;34.47;19.75;;;;;;;;;;4956334;29;20587;-45
2022/10/16 01:40:11;;;;;;;29.05;19.88;;;;;;;;;;4956098;29;20231;-46
2022/10/16 01:42:51;;;;;;;29.98;18.77;;;;;;;;;;4956594;29;20214;-46
2022/10/16 01:45:19;;;;;;;28.20;19.00;;;;;;;;;;4955969;29;20290;-45
2022/10/16 01:47:48;;;;;;;28.27;17.90;;;;;;;;;;4956966;28;20238;-45
2022/10/16 01:50:16;;;;;;;26.08;18.52;;;;;;;;;;4956014;29;20213;-45
2022/10/16 01:52:45;;;;;;;31.65;22.80;;;;;;;;;;4955881;29;20211;-46
2022/10/16 01:55:16;;;;;;;33.88;24.17;;;;;;;;;;4955986;29;20598;-45
2022/10/16 01:57:46;;;;;;;37.72;28.35;;;;;;;;;;4955736;29;20270;-46
2022/10/16 02:00:14;;;;;;;33.85;26.25;;;;;;;;;;4956017;29;20199;-45
2022/10/16 02:02:42;;;;;;;36.05;25.67;;;;;;;;;;4955700;29;20574;-45
2022/10/16 02:05:32;;;;;;;34.90;25.15;;;;;;;;;;4956677;28;20247;-45
2022/10/16 02:07:59;;;;;;;30.80;21.60;;;;;;;;;;4956190;29;20229;-45
2022/10/16 02:10:31;;;;;;;36.72;24.65;;;;;;;;;;4957074;28;20302;-46
2022/10/16 02:13:27;;;;;;;32.33;20.45;;;;;;;;;;4956873;28;20203;-45
2022/10/16 02:15:54;;;;;;;34.65;26.52;;;;;;;;;;4956274;28;20622;-46
2022/10/16 02:18:21;;;;;;;28.10;19.08;;;;;;;;;;4956288;28;20242;-46
2022/10/16 02:20:51;;;;;;;29.52;20.40;;;;;;;;;;4955639;29;20203;-45
2022/10/16 02:23:25;;;;;;;33.13;19.42;;;;;;;;;;4955623;29;20218;-45
2022/10/16 02:25:53;;;;;;;25.17;18.20;;;;;;;;;;4955791;29;20200;-45
2022/10/16 02:28:27;;;;;;;34.28;24.23;;;;;;;;;;4955652;29;20211;-46
2022/10/16 02:31:00;;;;;;;41.25;31.80;;;;;;;;;;4956195;29;20294;-47
2022/10/16 02:33:27;;;;;;;42.47;31.73;;;;;;;;;;4955706;29;20219;-46
2022/10/16 02:35:55;;;;;;;41.97;34.28;;;;;;;;;;4955578;29;20200;-45
2022/10/16 02:38:23;;;;;;;48.47;37.45;;;;;;;;;;4956148;28;20230;-45
2022/10/16 02:40:50;;;;;;;30.20;19.83;;;;;;;;;;4956491;28;20204;-45
2022/10/16 02:43:18;;;;;;;33.70;21.23;;;;;;;;;;4956573;28;20218;-45
2022/10/16 02:45:45;;;;;;;39.03;24.90;;;;;;;;;;4959995;28;20200;-46
2022/10/16 02:48:12;;;;;;;31.30;21.65;;;;;;;;;;4959952;29;20210;-46
2022/10/16 02:50:39;;;;;;;31.00;22.23;;;;;;;;;;4959930;28;20208;-46
2022/10/16 02:53:06;;;;;;;31.88;21.95;;;;;;;;;;4959834;28;20200;-45
2022/10/16 02:55:33;;;;;;;29.48;19.50;;;;;;;;;;4960712;28;20298;-45
2022/10/16 02:58:00;;;;;;;34.13;20.92;;;;;;;;;;4959503;28;20211;-45
2022/10/16 03:00:28;;;;;;;30.60;20.58;;;;;;;;;;4959857;28;20211;-46
2022/10/16 03:02:55;;;;;;;52.03;40.70;;;;;;;;;;4959939;28;20290;-45
2022/10/16 03:05:22;;;;;;;41.25;34.30;;;;;;;;;;4959663;28;20215;-46
2022/10/16 03:07:49;;;;;;;44.03;34.63;;;;;;;;;;4959824;28;20199;-46
2022/10/16 03:10:16;;;;;;;44.03;31.38;;;;;;;;;;4959311;28;20734;-45
2022/10/16 03:12:43;;;;;;;40.08;28.27;;;;;;;;;;4959523;28;20219;-45
2022/10/16 03:15:10;;;;;;;31.88;22.10;;;;;;;;;;4959475;28;20214;-47
2022/10/16 03:17:37;;;;;;;33.50;19.98;;;;;;;;;;4959436;28;20200;-46
2022/10/16 03:20:04;;;;;;;33.92;20.67;;;;;;;;;;4958406;29;20738;-46
2022/10/16 03:22:31;;;;;;;29.63;20.15;;;;;;;;;;4959457;29;20274;-46
2022/10/16 03:24:58;;;;;;;28.90;20.05;;;;;;;;;;4959124;28;20294;-45
2022/10/16 03:27:25;;;;;;;34.10;20.98;;;;;;;;;;4959276;28;20204;-46
2022/10/16 03:29:53;;;;;;;31.27;19.83;;;;;;;;;;4959130;28;20207;-45
2022/10/16 03:32:20;;;;;;;31.33;21.23;;;;;;;;;;4959114;28;20207;-45
2022/10/16 03:34:47;;;;;;;36.13;25.20;;;;;;;;;;4958821;28;20207;-46
2022/10/16 03:37:14;;;;;;;47.40;41.28;;;;;;;;;;4959091;28;20199;-46
2022/10/16 03:39:41;;;;;;;38.55;26.52;;;;;;;;;;4958138;29;20231;-45
2022/10/16 03:42:08;;;;;;;46.85;34.03;;;;;;;;;;4959397;28;20211;-46
2022/10/16 03:44:34;;;;;;;48.72;38.92;;;;;;;;;;4958788;28;20203;-45
2022/10/16 03:47:01;;;;;;;43.13;33.00;;;;;;;;;;4958914;28;20216;-45
2022/10/16 03:49:28;;;;;;;33.88;20.35;;;;;;;;;;4958825;28;20207;-45
2022/10/16 03:51:55;;;;;;;33.67;25.25;;;;;;;;;;4958665;28;20204;-45
2022/10/16 03:54:22;;;;;;;32.00;19.92;;;;;;;;;;4958963;28;20207;-45
2022/10/16 03:56:49;;;;;;;29.85;20.55;;;;;;;;;;4958692;28;20207;-45
2022/10/16 03:59:17;;;;;;;27.23;19.27;;;;;;;;;;4958687;28;20257;-45
2022/10/16 04:01:44;;;;;;;32.90;19.65;;;;;;;;;;4958320;28;20199;-45
2022/10/16 04:04:11;;;;;;;28.80;18.70;;;;;;;;;;4958173;28;20322;-46
2022/10/16 04:06:38;;;;;;;30.10;18.83;;;;;;;;;;4958780;28;20219;-46
2022/10/16 04:09:05;;;;;;;32.97;24.00;;;;;;;;;;4958884;28;20218;-45
2022/10/16 04:11:32;;;;;;;39.28;26.60;;;;;;;;;;4958316;28;20635;-45
2022/10/16 04:13:59;;;;;;;38.50;30.35;;;;;;;;;;4958289;28;20211;-46
2022/10/16 04:16:26;;;;;;;45.38;38.20;;;;;;;;;;4958184;28;20224;-45
2022/10/16 04:18:53;;;;;;;46.10;34.38;;;;;;;;;;4962717;28;20223;-46
2022/10/16 04:21:20;;;;;;;44.38;38.63;;;;;;;;;;4966902;28;20701;-46
2022/10/16 04:23:49;;;;;;;33.60;20.92;;;;;;;;;;4965357;28;20222;-46
2022/10/16 04:26:16;;;;;;;33.90;19.23;;;;;;;;;;4965112;28;20231;-46
2022/10/16 04:28:43;;;;;;;30.95;20.70;;;;;;;;;;4964398;28;20215;-46
2022/10/16 04:31:10;;;;;;;37.20;24.88;;;;;;;;;;4966897;28;20194;-45
2022/10/16 04:33:37;;;;;;;31.15;19.67;;;;;;;;;;4965890;28;20211;-45
2022/10/16 04:36:04;;;;;;;35.33;25.30;;;;;;;;;;4964568;28;20190;-45
2022/10/16 04:38:31;;;;;;;28.55;18.60;;;;;;;;;;4965067;28;20291;-46
2022/10/16 04:40:59;;;;;;;29.67;18.75;;;;;;;;;;4966082;28;20210;-45
2022/10/16 04:43:26;;;;;;;28.23;17.98;;;;;;;;;;4966743;28;20207;-47
2022/10/16 04:45:58;;;;;;;27.20;18.33;;;;;;;;;;4964290;28;20204;-46
2022/10/16 04:48:25;;;;;;;38.92;29.50;;;;;;;;;;4964759;28;20209;-46
2022/10/16 04:50:53;;;;;;;31.35;21.15;;;;;;;;;;4962754;28;20199;-45
2022/10/16 04:53:21;;;;;;;34.65;25.95;;;;;;;;;;4965334;28;20207;-45
2022/10/16 04:55:49;;;;;;;38.10;24.15;;;;;;;;;;4966685;28;20199;-45
2022/10/16 04:58:16;;;;;;;30.35;22.25;;;;;;;;;;4961902;28;20203;-45
2022/10/16 05:00:44;;;;;;;28.17;19.02;;;;;;;;;;4957584;28;20227;-45
2022/10/16 05:03:12;;;;;;;29.25;20.33;;;;;;;;;;4957387;28;20242;-45
2022/10/16 05:05:44;;;;;;;31.20;20.67;;;;;;;;;;4965872;28;20269;-47
2022/10/16 05:08:15;;;;;;;28.48;17.83;;;;;;;;;;4965730;28;20209;-48
2022/10/16 05:10:43;;;;;;;26.73;19.23;;;;;;;;;;4970868;28;20194;-46
2022/10/16 05:13:10;;;;;;;28.13;18.17;;;;;;;;;;4947166;28;20367;-48
2022/10/16 05:15:38;;;;;;;27.00;17.38;;;;;;;;;;4966601;28;20202;-46
2022/10/16 05:18:04;;;;;;;30.13;18.33;;;;;;;;;;4965251;28;20199;-45
2022/10/16 05:20:32;;;;;;;30.30;17.60;;;;;;;;;;4965856;28;20238;-47
2022/10/16 05:22:58;;;;;;;25.10;17.42;;;;;;;;;;4962025;28;20299;-46
2022/10/16 05:25:26;;;;;;;28.30;17.63;;;;;;;;;;4962882;28;20207;-46
2022/10/16 05:27:53;;;;;;;31.27;17.95;;;;;;;;;;4957278;29;20203;-46
2022/10/16 05:30:20;;;;;;;31.45;18.33;;;;;;;;;;4963756;28;21507;-47
2022/10/16 05:32:48;;;;;;;28.33;17.35;;;;;;;;;;4961146;28;20634;-47
2022/10/16 05:35:16;;;;;;;27.73;18.52;;;;;;;;;;4966292;28;20626;-46
2022/10/16 05:37:44;;;;;;;30.23;19.90;;;;;;;;;;4964841;28;20214;-46
2022/10/16 05:40:12;;;;;;;29.17;19.60;;;;;;;;;;4964401;28;20226;-46
2022/10/16 05:42:40;;;;;;;37.05;23.88;;;;;;;;;;4962084;28;20282;-46
2022/10/16 05:45:09;;;;;;;32.50;24.15;;;;;;;;;;4962971;28;20231;-48
2022/10/16 05:47:36;;;;;;;32.03;26.35;;;;;;;;;;4963035;28;20627;-48
2022/10/16 05:50:04;;;;;;;33.85;22.88;;;;;;;;;;4966986;28;20201;-49
2022/10/16 05:52:32;;;;;;;46.72;37.33;;;;;;;;;;4959886;28;20682;-46
2022/10/16 05:54:59;;;;;;;35.70;22.52;;;;;;;;;;4963123;28;20227;-46
2022/10/16 05:57:26;;;;;;;32.97;24.85;;;;;;;;;;4960626;28;20223;-47
2022/10/16 05:59:54;;;;;;;25.67;18.73;;;;;;;;;;4962940;28;20604;-46
2022/10/16 06:02:21;;;;;;;26.77;18.70;;;;;;;;;;4962600;28;20324;-47
2022/10/16 06:04:48;;;;;;;22.75;15.82;;;;;;;;;;4962372;28;20235;-48
2022/10/16 06:07:15;;;;;;;24.65;17.38;;;;;;;;;;4960772;28;20562;-46
2022/10/16 06:09:42;;;;;;;27.92;17.08;;;;;;;;;;4965132;28;20598;-49
2022/10/16 06:12:09;;;;;;;27.92;17.25;;;;;;;;;;4968737;28;20223;-48
2022/10/16 06:14:36;;;;;;;25.80;16.92;;;;;;;;;;4975339;28;20234;-50
2022/10/16 06:17:03;;;;;;;26.75;19.23;;;;;;;;;;4974843;28;20234;-47
2022/10/16 06:19:31;;;;;;;31.42;25.05;;;;;;;;;;4978112;28;20261;-46
2022/10/16 06:21:58;;;;;;;37.72;29.95;;;;;;;;;;4977938;28;20226;-46
2022/10/16 06:24:25;;;;;;;39.42;31.88;;;;;;;;;;4971504;28;20253;-47
2022/10/16 06:26:52;;;;;;;36.33;25.63;;;;;;;;;;4968030;28;20310;-46
2022/10/16 06:29:19;;;;;;;39.80;30.00;;;;;;;;;;4965560;28;20223;-46
2022/10/16 06:31:46;;;;;;;28.15;23.45;;;;;;;;;;4968467;28;20242;-46
2022/10/16 06:34:13;;;;;;;24.30;17.85;;;;;;;;;;4958721;28;20670;-45
2022/10/16 06:36:40;;;;;;;29.33;23.20;;;;;;;;;;4965779;28;20223;-48
2022/10/16 06:39:08;;;;;;;23.38;16.13;;;;;;;;;;4967054;28;20226;-46
2022/10/16 06:41:35;;;;;;;37.45;19.80;;;;;;;;;;4968647;28;20334;-47
2022/10/16 06:44:14;;;;;;;26.48;16.17;;;;;;;;;;4967201;28;20231;-48
2022/10/16 06:46:41;;;;;;;24.05;16.38;;;;;;;;;;4968552;28;20619;-47
2022/10/16 06:49:08;;;;;;;26.83;17.05;;;;;;;;;;4965495;28;20547;-46
2022/10/16 06:51:40;;;;;;;23.13;15.15;;;;;;;;;;4965263;28;20238;-48
2022/10/16 06:54:09;;;;;;;25.35;15.32;;;;;;;;;;4960873;28;20271;-48
2022/10/16 06:56:36;;;;;;;22.08;15.57;;;;;;;;;;4967254;28;20311;-48
2022/10/16 06:59:04;;;;;;;29.83;22.77;;;;;;;;;;4962099;28;21009;-50
2022/10/16 07:01:32;;;;;;;32.22;23.23;;;;;;;;;;4959501;28;20234;-50
2022/10/16 07:04:00;;;;;;;33.78;29.30;;;;;;;;;;4961472;28;20538;-48
2022/10/16 07:06:30;;;;;;;40.03;33.97;;;;;;;;;;4959963;28;20310;-49
2022/10/16 07:08:57;;;;;;;32.78;25.75;;;;;;;;;;4961839;28;20560;-48
2022/10/16 07:11:24;;;;;;;44.42;35.40;;;;;;;;;;4963798;28;20231;-47
2022/10/16 07:13:52;;;;;;;27.83;19.08;;;;;;;;;;4963980;28;20265;-48
2022/10/16 07:16:24;;;;;;;28.63;21.83;;;;;;;;;;4961825;28;20223;-47
2022/10/16 07:18:59;;;;;;;23.42;16.40;;;;;;;;;;4967370;28;20230;-49
2022/10/16 07:21:35;;;;;;;23.08;16.80;;;;;;;;;;4965131;28;20243;-48
2022/10/16 07:24:04;;;;;;;27.75;18.48;;;;;;;;;;4965572;28;20292;-48
2022/10/16 07:26:34;;;;;;;21.25;16.02;;;;;;;;;;4963365;28;20219;-47
2022/10/16 07:29:01;;;;;;;23.98;16.10;;;;;;;;;;4965374;28;20354;-47
2022/10/16 07:31:28;;;;;;;24.45;15.68;;;;;;;;;;4964068;28;20585;-48
2022/10/16 07:33:58;;;;;;;21.58;15.23;;;;;;;;;;4965438;28;20259;-48
2022/10/16 07:36:25;;;;;;;23.50;14.05;;;;;;;;;;4965408;28;20674;-48
2022/10/16 07:38:53;;;;;;;23.85;16.35;;;;;;;;;;4965142;28;20321;-49
2022/10/16 07:41:25;;;;;;;21.10;15.90;;;;;;;;;;4966334;28;20258;-49
2022/10/16 07:43:53;;;;;;;31.23;23.73;;;;;;;;;;4962024;28;20242;-47
2022/10/16 07:46:21;;;;;;;28.10;21.30;;;;;;;;;;4964236;28;20226;-47
2022/10/16 07:48:49;;;;;;;27.95;19.40;;;;;;;;;;4965358;28;20657;-47
2022/10/16 07:51:18;;;;;;;20.83;14.35;;;;;;;;;;4964212;28;20356;-49
2022/10/16 07:53:46;;;;;;;25.48;15.55;;;;;;;;;;4960565;28;20560;-49
2022/10/16 07:56:14;;;;;;;23.08;14.23;;;;;;;;;;4955140;28;20629;-48
2022/10/16 07:58:42;;;;;;;24.13;14.93;;;;;;;;;;4967682;28;20219;-48
2022/10/16 08:01:13;;;;;;;20.27;13.55;;;;;;;;;;4961808;28;20223;-49
2022/10/16 08:03:44;;;;;;;21.17;13.40;;;;;;;;;;4962241;28;20247;-49
2022/10/16 08:06:11;;;;;;;20.75;14.27;;;;;;;;;;4963087;28;20216;-48
2022/10/16 08:08:38;;;;;;;21.70;13.20;;;;;;;;;;4965134;28;20230;-48
2022/10/16 08:11:05;;;;;;;18.55;12.27;;;;;;;;;;4965213;28;20297;-51
2022/10/16 08:13:32;;;;;;;14.10;11.68;;;;;;;;;;4968738;28;20313;-50
2022/10/16 08:15:59;;;;;;;16.80;12.65;;;;;;;;;;4966838;28;20307;-49
2022/10/16 08:18:27;;;;;;;18.27;12.25;;;;;;;;;;4965541;28;20218;-47
2022/10/16 08:20:58;;;;;;;20.02;12.48;;;;;;;;;;4966729;28;20239;-46
2022/10/16 08:23:26;;;;;;;19.10;13.05;;;;;;;;;;4957705;28;20246;-47
2022/10/16 08:25:54;;;;;;;19.13;12.80;;;;;;;;;;4956943;28;20301;-51
2022/10/16 08:28:22;;;;;;;18.98;13.02;;;;;;;;;;4957396;28;20266;-48
2022/10/16 08:30:49;;;;;;;20.95;12.85;;;;;;;;;;4956545;28;20223;-49
2022/10/16 08:33:17;;;;;;;19.08;12.73;;;;;;;;;;4957378;29;20227;-48
2022/10/16 08:35:53;;;;;;;17.80;13.18;;;;;;;;;;4956665;28;20231;-48
2022/10/16 08:38:21;;;;;;;23.90;14.20;;;;;;;;;;4956919;28;20572;-46
2022/10/16 08:40:47;;;;;;;19.85;12.65;;;;;;;;;;4958503;28;20257;-50
2022/10/16 08:43:20;;;;;;;17.90;14.40;;;;;;;;;;4965245;28;20227;-47
2022/10/16 08:46:24;;;;;;;19.00;14.35;;;;;;;;;;4967740;28;20289;-47
2022/10/16 08:48:54;;;;;;;20.85;17.95;;;;;;;;;;4955365;29;20286;-48
2022/10/16 08:51:24;;;;;;;22.00;16.60;;;;;;;;;;4956193;28;20298;-47
2022/10/16 08:53:57;;;;;;;23.88;15.45;;;;;;;;;;4957036;28;20602;-47
2022/10/16 08:56:25;;;;;;;17.58;11.63;;;;;;;;;;4956672;28;20215;-47
2022/10/16 08:58:53;;;;;;;19.75;12.10;;;;;;;;;;4956316;28;20227;-49
2022/10/16 09:01:40;;;;;;;19.17;12.20;;;;;;;;;;4955651;29;20256;-48
2022/10/16 09:04:26;;;;;;;18.33;12.30;;;;;;;;;;4955615;29;20262;-48
2022/10/16 09:06:57;;;;;;;18.10;12.05;;;;;;;;;;4956042;28;20246;-48
2022/10/16 09:09:53;;;;;;;16.80;11.88;;;;;;;;;;4954522;28;20223;-48
2022/10/16 09:12:25;;;;;;;16.33;11.75;;;;;;;;;;4955742;28;20219;-47
2022/10/16 09:14:57;;;;;;;18.10;12.10;;;;;;;;;;4962876;28;20234;-48
2022/10/16 09:17:36;;;;;;;15.00;10.85;;;;;;;;;;4961600;28;20223;-47
2022/10/16 09:20:04;;;;;;;15.82;11.43;;;;;;;;;;4954287;28;20715;-48
2022/10/16 09:22:31;;;;;;;18.02;13.05;;;;;;;;;;4955343;28;20254;-48
2022/10/16 09:25:21;;;;;;;21.42;14.77;;;;;;;;;;4953977;28;20231;-47
2022/10/16 09:27:48;;;;;;;26.38;17.80;;;;;;;;;;4954585;28;20232;-49
2022/10/16 09:30:18;;;;;;;19.13;14.68;;;;;;;;;;4954656;28;20242;-47
2022/10/16 09:32:47;;;;;;;19.25;17.23;;;;;;;;;;4958458;28;20227;-46
2022/10/16 09:35:18;;;;;;;16.58;12.10;;;;;;;;;;4957283;28;20533;-47
2022/10/16 09:37:47;;;;;;;16.73;11.32;;;;;;;;;;4953068;29;20538;-48
2022/10/16 09:40:25;;;;;;;17.50;10.88;;;;;;;;;;4953858;28;20563;-47
2022/10/16 09:42:57;;;;;;;16.30;11.38;;;;;;;;;;4954349;28;20199;-47
2022/10/16 09:45:25;;;;;;;18.60;11.63;;;;;;;;;;4922652;29;20204;-49
2022/10/16 09:47:52;;;;;;;18.50;11.52;;;;;;;;;;4955312;29;20215;-47
2022/10/16 09:50:26;;;;;;;16.42;10.40;;;;;;;;;;4955141;28;20544;-47
2022/10/16 09:53:11;;;;;;;14.77;10.43;;;;;;;;;;4955874;28;20211;-47
2022/10/16 09:55:49;;;;;;;15.50;11.23;;;;;;;;;;4955521;28;20548;-48
2022/10/16 09:58:16;;;;;;;16.73;11.32;;;;;;;;;;4956059;28;20851;-48
2022/10/16 10:00:49;;;;;;;18.08;11.00;;;;;;;;;;4956422;29;20287;-47
2022/10/16 10:03:38;;;;;;;13.70;10.85;;;;;;;;;;4955476;29;20235;-47
2022/10/16 10:06:16;;;;;;;14.93;10.35;;;;;;;;;;4954082;29;20202;-46
2022/10/16 10:09:20;;;;;;;13.20;10.10;;;;;;;;;;4956982;28;20196;-46
2022/10/16 10:11:47;;;;;;;12.57;9.63;;;;;;;;;;4942871;29;20222;-48
2022/10/16 10:14:23;;;;;;;14.40;10.52;;;;;;;;;;4956855;29;20223;-46
2022/10/16 10:16:53;;;;;;;16.25;10.55;;;;;;;;;;4956539;29;20255;-48
2022/10/16 10:19:23;;;;;;;15.10;10.40;;;;;;;;;;4956615;29;20219;-46
2022/10/16 10:21:57;;;;;;;16.08;10.27;;;;;;;;;;4956364;28;20215;-46
2022/10/16 10:24:23;;;;;;;13.88;10.05;;;;;;;;;;4955260;28;20326;-47
2022/10/16 10:26:54;;;;;;;15.13;10.13;;;;;;;;;;4955364;28;20662;-48
2022/10/16 10:29:31;;;;;;;13.82;9.60;;;;;;;;;;4956110;28;20208;-47
2022/10/16 10:32:04;;;;;;;16.65;9.82;;;;;;;;;;4955544;28;20198;-47
2022/10/16 10:34:31;;;;;;;15.10;10.25;;;;;;;;;;4953918;29;20553;-47
2022/10/16 10:37:27;;;;;;;16.13;9.85;;;;;;;;;;4955499;28;20203;-47
2022/10/16 10:40:17;;;;;;;19.10;10.18;;;;;;;;;;4954726;29;20604;-47
2022/10/16 10:42:54;;;;;;;12.90;9.77;;;;;;;;;;4954701;29;20188;-47
2022/10/16 10:45:35;;;;;;;13.93;10.27;;;;;;;;;;4954488;29;20217;-48
2022/10/16 10:48:05;;;;;;;11.57;8.93;;;;;;;;;;4955819;28;20203;-47
2022/10/16 10:50:53;;;;;;;17.55;9.93;;;;;;;;;;4956108;29;20512;-47
2022/10/16 10:53:29;;;;;;;20.65;10.90;;;;;;;;;;4954899;29;20211;-48
2022/10/16 10:56:14;;;;;;;20.90;9.40;;;;;;;;;;4956232;28;20294;-48
2022/10/16 10:58:53;;;;;;;16.48;10.10;;;;;;;;;;4955873;28;20214;-47
2022/10/16 11:01:52;;;;;;;13.68;9.85;;;;;;;;;;4955351;28;20238;-47
2022/10/16 11:04:57;;;;;;;15.85;9.77;;;;;;;;;;4955097;28;20667;-47
2022/10/16 11:07:33;;;;;;;14.75;9.10;;;;;;;;;;4959659;28;20211;-47
2022/10/16 11:10:12;;;;;;;14.40;9.13;;;;;;;;;;4958515;29;20495;-47
2022/10/16 11:12:42;;;;;;;14.77;8.82;;;;;;;;;;4958700;29;20202;-48
2022/10/16 11:15:20;;;;;;;16.30;9.70;;;;;;;;;;4957737;29;20199;-48
2022/10/16 11:17:53;;;;;;;11.60;9.00;;;;;;;;;;4957786;29;20246;-49
2022/10/16 11:20:26;;;;;;;17.35;9.68;;;;;;;;;;4958728;28;20678;-50
2022/10/16 11:22:57;;;;;;;19.17;9.35;;;;;;;;;;4958214;28;20199;-52
2022/10/16 11:25:30;;;;;;;18.50;9.93;;;;;;;;;;4957821;29;20286;-47
2022/10/16 11:28:19;;;;;;;14.00;9.13;;;;;;;;;;4959051;28;20230;-47
2022/10/16 11:30:51;;;;;;;12.88;9.70;;;;;;;;;;4957993;29;20274;-47
2022/10/16 11:33:18;;;;;;;15.93;9.40;;;;;;;;;;4959166;28;20294;-46
2022/10/16 11:35:55;;;;;;;16.48;9.00;;;;;;;;;;4958603;29;20223;-47
2022/10/16 11:38:41;;;;;;;13.93;9.52;;;;;;;;;;4958788;28;20183;-47
2022/10/16 11:41:21;;;;;;;14.88;9.25;;;;;;;;;;4957531;29;20290;-47
2022/10/16 11:44:15;;;;;;;11.32;8.93;;;;;;;;;;4941994;28;20196;-47
2022/10/16 11:46:57;;;;;;;15.00;9.05;;;;;;;;;;4950217;28;20623;-47
2022/10/16 11:49:36;;;;;;;11.98;9.20;;;;;;;;;;4954964;29;20830;-47
2022/10/16 11:52:13;;;;;;;15.23;9.43;;;;;;;;;;4955125;29;20215;-48
2022/10/16 11:55:05;;;;;;;13.55;9.23;;;;;;;;;;4956636;29;20200;-46
2022/10/16 11:57:40;;;;;;;14.63;9.57;;;;;;;;;;4957546;29;20203;-46
2022/10/16 12:00:23;;;;;;;12.75;9.43;;;;;;;;;;4958314;29;20209;-46
2022/10/16 12:03:21;;;;;;;15.90;8.82;;;;;;;;;;4957840;28;20239;-47
2022/10/16 12:05:59;;;;;;;15.98;9.52;;;;;;;;;;4958336;29;20211;-47
2022/10/16 12:08:26;;;;;;;11.60;8.52;;;;;;;;;;4957812;29;20206;-47
2022/10/16 12:10:55;;;;;;;15.00;9.55;;;;;;;;;;4958321;28;20212;-46
2022/10/16 12:13:31;;;;;;;12.98;8.60;;;;;;;;;;4958448;28;20211;-47
2022/10/16 12:16:24;;;;;;;12.00;8.23;;;;;;;;;;4958368;28;20227;-47
2022/10/16 12:19:12;;;;;;;13.98;8.93;;;;;;;;;;4956314;28;20220;-48
2022/10/16 12:21:39;;;;;;;13.23;9.32;;;;;;;;;;4958193;28;20223;-49
2022/10/16 12:24:21;;;;;;;11.65;8.15;;;;;;;;;;4958281;28;20239;-46
2022/10/16 12:26:50;;;;;;;11.18;8.77;;;;;;;;;;4958393;28;20203;-48
2022/10/16 12:29:39;;;;;;;11.60;8.15;;;;;;;;;;4957623;29;20195;-48
2022/10/16 12:32:35;;;;;;;10.85;9.02;;;;;;;;;;4958186;28;20195;-47
2022/10/16 12:35:21;;;;;;;12.52;9.23;;;;;;;;;;4958289;28;20218;-46
2022/10/16 12:37:48;;;;;;;13.23;9.20;;;;;;;;;;4957877;28;20222;-47
2022/10/16 12:40:24;;;;;;;14.30;9.30;;;;;;;;;;4957947;29;20222;-47
2022/10/16 12:42:51;;;;;;;15.10;10.25;;;;;;;;;;4957655;28;20258;-47
2022/10/16 12:45:33;;;;;;;13.40;9.27;;;;;;;;;;4957451;29;20207;-46
2022/10/16 12:48:02;;;;;;;14.35;9.88;;;;;;;;;;4958008;28;20262;-47
2022/10/16 12:50:35;;;;;;;13.70;9.07;;;;;;;;;;4957193;29;20211;-47
2022/10/16 12:53:16;;;;;;;14.40;9.10;;;;;;;;;;4957506;28;20203;-47
2022/10/16 12:56:09;;;;;;;17.45;9.77;;;;;;;;;;4957548;28;20203;-47
2022/10/16 12:58:51;;;;;;;14.45;9.40;;;;;;;;;;4945501;29;20237;-46
2022/10/16 13:01:25;;;;;;;14.60;9.88;;;;;;;;;;4956810;29;20222;-46
2022/10/16 13:04:13;;;;;;;11.77;8.48;;;;;;;;;;4957814;28;20681;-46
2022/10/16 13:07:02;;;;;;;14.30;9.00;;;;;;;;;;4956900;29;20247;-47
2022/10/16 13:09:41;;;;;;;14.50;9.32;;;;;;;;;;4957783;29;20218;-47
2022/10/16 13:12:16;;;;;;;10.77;7.95;;;;;;;;;;4957144;28;20215;-46
2022/10/16 13:15:30;;;;;;;15.75;10.15;;;;;;;;;;4957127;29;20250;-47
2022/10/16 13:18:16;;;;;;;13.43;8.43;;;;;;;;;;4917291;29;20209;-47
2022/10/16 13:21:04;;;;;;;11.85;8.27;;;;;;;;;;4917651;29;20220;-46
2022/10/16 13:23:46;;;;;;;10.75;7.82;;;;;;;;;;4949823;29;20203;-47
2022/10/16 13:26:24;;;;;;;12.02;8.82;;;;;;;;;;4957144;28;20206;-49
2022/10/16 13:28:51;;;;;;;10.25;7.93;;;;;;;;;;4957314;28;20207;-47
2022/10/16 13:31:23;;;;;;;11.20;8.18;;;;;;;;;;4956809;29;20242;-47
2022/10/16 13:33:54;;;;;;;10.77;7.70;;;;;;;;;;4924294;29;20206;-46
2022/10/16 13:36:24;;;;;;;12.40;8.15;;;;;;;;;;4957424;28;20204;-47
2022/10/16 13:39:08;;;;;;;13.15;8.25;;;;;;;;;;4956736;28;20619;-47
2022/10/16 13:41:36;;;;;;;13.27;8.00;;;;;;;;;;4956900;28;20231;-46
2022/10/16 13:44:04;;;;;;;12.23;8.38;;;;;;;;;;4956479;29;20211;-46
2022/10/16 13:46:34;;;;;;;11.27;8.63;;;;;;;;;;4956030;29;20291;-47
2022/10/16 13:49:04;;;;;;;11.75;8.10;;;;;;;;;;4956652;28;20187;-47
2022/10/16 13:51:32;;;;;;;11.07;8.85;;;;;;;;;;4956837;28;20287;-47
2022/10/16 13:53:59;;;;;;;18.73;9.05;;;;;;;;;;4955758;29;20218;-47
2022/10/16 13:56:29;;;;;;;10.68;8.00;;;;;;;;;;4955953;29;20211;-47
2022/10/16 13:59:05;;;;;;;10.40;7.88;;;;;;;;;;4956920;28;20554;-48
2022/10/16 14:01:35;;;;;;;18.63;9.90;;;;;;;;;;4956855;28;20237;-48
2022/10/16 14:04:05;;;;;;;11.98;7.85;;;;;;;;;;4955634;29;20290;-47
2022/10/16 14:06:32;;;;;;;12.38;8.82;;;;;;;;;;4956780;28;20203;-47
2022/10/16 14:09:19;;;;;;;14.85;8.80;;;;;;;;;;4956094;29;20203;-46
2022/10/16 14:11:52;;;;;;;13.20;8.73;;;;;;;;;;4956584;28;20266;-47
2022/10/16 14:14:20;;;;;;;15.18;9.10;;;;;;;;;;4955760;29;20213;-47
2022/10/16 14:16:47;;;;;;;10.80;8.52;;;;;;;;;;4957055;28;20211;-46
2022/10/16 14:19:20;;;;;;;14.13;9.10;;;;;;;;;;4955818;29;20215;-46
2022/10/16 14:21:48;;;;;;;11.60;8.98;;;;;;;;;;4956824;28;20298;-47
2022/10/16 14:24:30;;;;;;;12.93;9.23;;;;;;;;;;4956647;28;20211;-46
2022/10/16 14:26:58;;;;;;;13.27;8.75;;;;;;;;;;4956456;28;20229;-48
2022/10/16 14:29:26;;;;;;;16.08;9.90;;;;;;;;;;4955436;29;20647;-47
2022/10/16 14:31:58;;;;;;;14.73;10.15;;;;;;;;;;4956454;28;20230;-47
2022/10/16 14:34:34;;;;;;;15.75;9.48;;;;;;;;;;4956867;28;20223;-46
2022/10/16 14:37:08;;;;;;;10.10;8.23;;;;;;;;;;4956588;28;20187;-47
2022/10/16 14:39:40;;;;;;;14.70;9.48;;;;;;;;;;4957444;28;20199;-47
2022/10/16 14:42:19;;;;;;;20.45;14.77;;;;;;;;;;4959227;29;20227;-48
2022/10/16 14:44:47;;;;;;;14.15;10.27;;;;;;;;;;4959213;29;20208;-46
2022/10/16 14:47:16;;;;;;;17.80;9.70;;;;;;;;;;4959995;29;20203;-47
2022/10/16 14:49:43;;;;;;;13.82;9.15;;;;;;;;;;4960093;28;20238;-46